sensor_id;sensor_type;location;lat;lon;timestamp;P1;durP1;ratioP1;P2;durP2;ratioP2
22260;SDS011;11299;43.202;27.920;2023-06-10T00:01:53;46.03;;;34.63;;
22260;SDS011;11299;43.202;27.920;2023-06-10T00:04:25;48.78;;;36.42;;
22260;SDS011;11299;43.202;27.920;2023-06-10T00:06:51;39.85;;;29.25;;
22260;SDS011;11299;43.202;27.920;2023-06-10T00:09:16;41.00;;;29.00;;
22260;SDS011;11299;43.202;27.920;2023-06-10T00:11:43;33.10;;;24.23;;
22260;SDS011;11299;43.202;27.920;2023-06-10T00:14:09;31.02;;;22.15;;
22260;SDS011;11299;43.202;27.920;2023-06-10T00:16:34;35.00;;;21.65;;
22260;SDS011;11299;43.202;27.920;2023-06-10T00:19:01;31.45;;;20.98;;
22260;SDS011;11299;43.202;27.920;2023-06-10T00:21:29;45.78;;;31.25;;
22260;SDS011;11299;43.202;27.920;2023-06-10T00:23:55;39.35;;;29.50;;
22260;SDS011;11299;43.202;27.920;2023-06-10T00:26:21;41.30;;;25.75;;
22260;SDS011;11299;43.202;27.920;2023-06-10T00:28:48;51.13;;;24.08;;
22260;SDS011;11299;43.202;27.920;2023-06-10T00:31:14;32.47;;;20.25;;
22260;SDS011;11299;43.202;27.920;2023-06-10T00:33:39;32.35;;;21.45;;
22260;SDS011;11299;43.202;27.920;2023-06-10T00:36:05;32.65;;;18.15;;
22260;SDS011;11299;43.202;27.920;2023-06-10T00:38:30;31.83;;;19.30;;
22260;SDS011;11299;43.202;27.920;2023-06-10T00:40:57;34.83;;;18.55;;
22260;SDS011;11299;43.202;27.920;2023-06-10T00:43:22;30.80;;;18.83;;
22260;SDS011;11299;43.202;27.920;2023-06-10T00:45:48;37.65;;;19.20;;
22260;SDS011;11299;43.202;27.920;2023-06-10T00:48:13;30.15;;;19.30;;
22260;SDS011;11299;43.202;27.920;2023-06-10T00:50:39;29.27;;;18.38;;
22260;SDS011;11299;43.202;27.920;2023-06-10T00:53:05;29.58;;;18.17;;
22260;SDS011;11299;43.202;27.920;2023-06-10T00:55:32;33.97;;;18.85;;
22260;SDS011;11299;43.202;27.920;2023-06-10T00:57:58;33.90;;;18.65;;
22260;SDS011;11299;43.202;27.920;2023-06-10T01:00:24;26.45;;;16.70;;
22260;SDS011;11299;43.202;27.920;2023-06-10T01:02:51;33.75;;;18.02;;
22260;SDS011;11299;43.202;27.920;2023-06-10T01:05:17;37.22;;;17.60;;
22260;SDS011;11299;43.202;27.920;2023-06-10T01:07:50;30.98;;;17.00;;
22260;SDS011;11299;43.202;27.920;2023-06-10T01:10:46;31.77;;;17.38;;
22260;SDS011;11299;43.202;27.920;2023-06-10T01:13:16;22.33;;;15.95;;
22260;SDS011;11299;43.202;27.920;2023-06-10T01:15:43;26.17;;;16.63;;
22260;SDS011;11299;43.202;27.920;2023-06-10T01:18:09;29.08;;;17.75;;
22260;SDS011;11299;43.202;27.920;2023-06-10T01:20:40;27.35;;;18.42;;
22260;SDS011;11299;43.202;27.920;2023-06-10T01:23:06;30.73;;;17.23;;
22260;SDS011;11299;43.202;27.920;2023-06-10T01:25:34;35.88;;;18.45;;
22260;SDS011;11299;43.202;27.920;2023-06-10T01:30:39;37.15;;;18.17;;
22260;SDS011;11299;43.202;27.920;2023-06-10T01:33:23;44.70;;;20.05;;
22260;SDS011;11299;43.202;27.920;2023-06-10T01:35:53;38.20;;;19.40;;
22260;SDS011;11299;43.202;27.920;2023-06-10T01:38:20;37.50;;;20.25;;
22260;SDS011;11299;43.202;27.920;2023-06-10T01:40:48;38.75;;;20.05;;
22260;SDS011;11299;43.202;27.920;2023-06-10T01:43:15;35.40;;;20.33;;
22260;SDS011;11299;43.202;27.920;2023-06-10T01:45:40;34.08;;;21.30;;
22260;SDS011;11299;43.202;27.920;2023-06-10T01:48:06;36.10;;;20.70;;
22260;SDS011;11299;43.202;27.920;2023-06-10T01:50:31;35.88;;;20.67;;
22260;SDS011;11299;43.202;27.920;2023-06-10T01:52:57;32.92;;;16.27;;
22260;SDS011;11299;43.202;27.920;2023-06-10T01:55:24;31.25;;;17.90;;
22260;SDS011;11299;43.202;27.920;2023-06-10T01:57:50;32.17;;;17.67;;
22260;SDS011;11299;43.202;27.920;2023-06-10T02:00:16;25.88;;;11.70;;
22260;SDS011;11299;43.202;27.920;2023-06-10T02:02:42;26.05;;;13.73;;
22260;SDS011;11299;43.202;27.920;2023-06-10T02:05:07;34.00;;;19.25;;
22260;SDS011;11299;43.202;27.920;2023-06-10T02:07:33;36.65;;;18.98;;
22260;SDS011;11299;43.202;27.920;2023-06-10T02:09:58;32.05;;;18.65;;
22260;SDS011;11299;43.202;27.920;2023-06-10T02:12:24;31.77;;;19.15;;
22260;SDS011;11299;43.202;27.920;2023-06-10T02:14:49;43.90;;;20.38;;
22260;SDS011;11299;43.202;27.920;2023-06-10T02:17:15;34.65;;;21.05;;
22260;SDS011;11299;43.202;27.920;2023-06-10T02:19:41;45.70;;;22.65;;
22260;SDS011;11299;43.202;27.920;2023-06-10T02:22:17;48.38;;;23.45;;
22260;SDS011;11299;43.202;27.920;2023-06-10T02:24:46;39.08;;;24.85;;
22260;SDS011;11299;43.202;27.920;2023-06-10T02:27:12;45.35;;;24.17;;
22260;SDS011;11299;43.202;27.920;2023-06-10T02:29:38;35.58;;;25.58;;
22260;SDS011;11299;43.202;27.920;2023-06-10T02:32:03;40.85;;;25.00;;
22260;SDS011;11299;43.202;27.920;2023-06-10T02:34:29;42.47;;;24.58;;
22260;SDS011;11299;43.202;27.920;2023-06-10T02:36:55;37.97;;;22.75;;
22260;SDS011;11299;43.202;27.920;2023-06-10T02:39:21;33.80;;;23.00;;
22260;SDS011;11299;43.202;27.920;2023-06-10T02:41:46;43.40;;;22.23;;
22260;SDS011;11299;43.202;27.920;2023-06-10T02:44:12;40.30;;;22.52;;
22260;SDS011;11299;43.202;27.920;2023-06-10T02:46:37;39.95;;;22.10;;
22260;SDS011;11299;43.202;27.920;2023-06-10T02:49:03;35.63;;;21.15;;
22260;SDS011;11299;43.202;27.920;2023-06-10T02:51:28;31.67;;;19.98;;
22260;SDS011;11299;43.202;27.920;2023-06-10T02:53:54;33.78;;;20.08;;
22260;SDS011;11299;43.202;27.920;2023-06-10T02:56:19;31.98;;;19.40;;
22260;SDS011;11299;43.202;27.920;2023-06-10T02:58:45;31.02;;;18.52;;
22260;SDS011;11299;43.202;27.920;2023-06-10T03:01:11;32.35;;;18.02;;
22260;SDS011;11299;43.202;27.920;2023-06-10T03:03:37;27.75;;;18.73;;
22260;SDS011;11299;43.202;27.920;2023-06-10T03:06:05;29.15;;;18.48;;
22260;SDS011;11299;43.202;27.920;2023-06-10T03:08:31;28.77;;;18.80;;
22260;SDS011;11299;43.202;27.920;2023-06-10T03:10:56;29.73;;;17.48;;
22260;SDS011;11299;43.202;27.920;2023-06-10T03:13:23;25.65;;;16.42;;
22260;SDS011;11299;43.202;27.920;2023-06-10T03:15:48;26.67;;;17.00;;
22260;SDS011;11299;43.202;27.920;2023-06-10T03:18:14;25.63;;;16.17;;
22260;SDS011;11299;43.202;27.920;2023-06-10T03:20:41;25.67;;;15.88;;
22260;SDS011;11299;43.202;27.920;2023-06-10T03:23:06;23.63;;;15.65;;
22260;SDS011;11299;43.202;27.920;2023-06-10T03:25:32;25.38;;;16.35;;
22260;SDS011;11299;43.202;27.920;2023-06-10T03:27:57;28.48;;;16.10;;
22260;SDS011;11299;43.202;27.920;2023-06-10T03:30:23;23.25;;;15.65;;
22260;SDS011;11299;43.202;27.920;2023-06-10T03:32:48;26.02;;;15.55;;
22260;SDS011;11299;43.202;27.920;2023-06-10T03:35:14;26.08;;;16.95;;
22260;SDS011;11299;43.202;27.920;2023-06-10T03:37:40;26.58;;;15.50;;
22260;SDS011;11299;43.202;27.920;2023-06-10T03:40:06;26.85;;;15.45;;
22260;SDS011;11299;43.202;27.920;2023-06-10T03:42:33;27.63;;;16.83;;
22260;SDS011;11299;43.202;27.920;2023-06-10T03:44:59;31.45;;;14.77;;
22260;SDS011;11299;43.202;27.920;2023-06-10T03:47:25;25.63;;;15.77;;
22260;SDS011;11299;43.202;27.920;2023-06-10T03:49:51;25.63;;;16.70;;
22260;SDS011;11299;43.202;27.920;2023-06-10T03:52:17;25.52;;;16.05;;
22260;SDS011;11299;43.202;27.920;2023-06-10T03:54:43;23.98;;;16.35;;
22260;SDS011;11299;43.202;27.920;2023-06-10T03:57:09;28.02;;;16.25;;
22260;SDS011;11299;43.202;27.920;2023-06-10T03:59:34;29.02;;;16.77;;
22260;SDS011;11299;43.202;27.920;2023-06-10T04:02:00;26.25;;;17.45;;
22260;SDS011;11299;43.202;27.920;2023-06-10T04:04:26;30.67;;;17.98;;
22260;SDS011;11299;43.202;27.920;2023-06-10T04:06:52;42.28;;;18.85;;
22260;SDS011;11299;43.202;27.920;2023-06-10T04:09:17;34.47;;;23.20;;
22260;SDS011;11299;43.202;27.920;2023-06-10T04:11:43;41.55;;;25.02;;
22260;SDS011;11299;43.202;27.920;2023-06-10T04:14:08;34.47;;;23.73;;
22260;SDS011;11299;43.202;27.920;2023-06-10T04:16:34;43.30;;;23.48;;
22260;SDS011;11299;43.202;27.920;2023-06-10T04:19:00;35.22;;;23.42;;
22260;SDS011;11299;43.202;27.920;2023-06-10T04:21:26;37.67;;;21.00;;
22260;SDS011;11299;43.202;27.920;2023-06-10T04:23:52;33.38;;;21.13;;
22260;SDS011;11299;43.202;27.920;2023-06-10T04:26:17;37.40;;;20.67;;
22260;SDS011;11299;43.202;27.920;2023-06-10T04:28:43;35.55;;;20.15;;
22260;SDS011;11299;43.202;27.920;2023-06-10T04:31:09;35.83;;;19.77;;
22260;SDS011;11299;43.202;27.920;2023-06-10T04:33:35;31.35;;;19.23;;
22260;SDS011;11299;43.202;27.920;2023-06-10T04:36:01;39.92;;;21.80;;
22260;SDS011;11299;43.202;27.920;2023-06-10T04:38:26;31.17;;;19.92;;
22260;SDS011;11299;43.202;27.920;2023-06-10T04:40:52;32.42;;;20.65;;
22260;SDS011;11299;43.202;27.920;2023-06-10T04:43:17;30.83;;;20.67;;
22260;SDS011;11299;43.202;27.920;2023-06-10T04:45:43;40.53;;;22.20;;
22260;SDS011;11299;43.202;27.920;2023-06-10T04:48:09;35.53;;;21.45;;
22260;SDS011;11299;43.202;27.920;2023-06-10T04:50:36;39.00;;;22.20;;
22260;SDS011;11299;43.202;27.920;2023-06-10T04:53:02;33.92;;;21.70;;
22260;SDS011;11299;43.202;27.920;2023-06-10T04:55:27;35.97;;;21.70;;
22260;SDS011;11299;43.202;27.920;2023-06-10T04:57:53;33.90;;;21.60;;
22260;SDS011;11299;43.202;27.920;2023-06-10T05:00:18;34.08;;;19.88;;
22260;SDS011;11299;43.202;27.920;2023-06-10T05:02:44;32.47;;;18.98;;
22260;SDS011;11299;43.202;27.920;2023-06-10T05:05:10;32.40;;;18.48;;
22260;SDS011;11299;43.202;27.920;2023-06-10T05:07:36;34.63;;;18.20;;
22260;SDS011;11299;43.202;27.920;2023-06-10T05:10:01;29.52;;;17.35;;
22260;SDS011;11299;43.202;27.920;2023-06-10T05:12:28;22.05;;;14.45;;
22260;SDS011;11299;43.202;27.920;2023-06-10T05:14:53;21.00;;;14.10;;
22260;SDS011;11299;43.202;27.920;2023-06-10T05:17:19;23.77;;;12.98;;
22260;SDS011;11299;43.202;27.920;2023-06-10T05:19:44;22.67;;;12.52;;
22260;SDS011;11299;43.202;27.920;2023-06-10T05:22:10;24.00;;;13.65;;
22260;SDS011;11299;43.202;27.920;2023-06-10T05:24:35;18.27;;;12.05;;
22260;SDS011;11299;43.202;27.920;2023-06-10T05:27:00;21.60;;;12.85;;
22260;SDS011;11299;43.202;27.920;2023-06-10T05:29:27;16.75;;;11.52;;
22260;SDS011;11299;43.202;27.920;2023-06-10T05:31:53;19.67;;;11.30;;
22260;SDS011;11299;43.202;27.920;2023-06-10T05:34:18;20.77;;;10.88;;
22260;SDS011;11299;43.202;27.920;2023-06-10T05:36:44;20.38;;;11.43;;
22260;SDS011;11299;43.202;27.920;2023-06-10T05:39:09;24.80;;;10.88;;
22260;SDS011;11299;43.202;27.920;2023-06-10T05:41:35;2.67;;;2.47;;
22260;SDS011;11299;43.202;27.920;2023-06-10T05:44:01;3.22;;;2.15;;
22260;SDS011;11299;43.202;27.920;2023-06-10T05:46:26;0.85;;;0.82;;
22260;SDS011;11299;43.202;27.920;2023-06-10T05:48:52;1.27;;;1.02;;
22260;SDS011;11299;43.202;27.920;2023-06-10T05:51:17;3.55;;;3.13;;
22260;SDS011;11299;43.202;27.920;2023-06-10T05:53:42;1.85;;;1.73;;
22260;SDS011;11299;43.202;27.920;2023-06-10T05:56:08;5.78;;;2.47;;
22260;SDS011;11299;43.202;27.920;2023-06-10T05:58:36;7.75;;;5.05;;
22260;SDS011;11299;43.202;27.920;2023-06-10T06:01:01;1.70;;;1.33;;
22260;SDS011;11299;43.202;27.920;2023-06-10T06:03:27;4.72;;;3.33;;
22260;SDS011;11299;43.202;27.920;2023-06-10T06:05:53;8.70;;;2.85;;
22260;SDS011;11299;43.202;27.920;2023-06-10T06:08:19;5.82;;;4.13;;
22260;SDS011;11299;43.202;27.920;2023-06-10T06:10:45;4.90;;;3.33;;
22260;SDS011;11299;43.202;27.920;2023-06-10T06:13:10;1.88;;;1.75;;
22260;SDS011;11299;43.202;27.920;2023-06-10T06:15:36;4.00;;;2.42;;
22260;SDS011;11299;43.202;27.920;2023-06-10T06:18:01;3.97;;;1.98;;
22260;SDS011;11299;43.202;27.920;2023-06-10T06:20:27;1.75;;;1.58;;
22260;SDS011;11299;43.202;27.920;2023-06-10T06:22:52;20.70;;;11.00;;
22260;SDS011;11299;43.202;27.920;2023-06-10T06:25:18;4.63;;;1.75;;
22260;SDS011;11299;43.202;27.920;2023-06-10T06:27:43;5.75;;;2.92;;
22260;SDS011;11299;43.202;27.920;2023-06-10T06:30:09;9.18;;;2.03;;
22260;SDS011;11299;43.202;27.920;2023-06-10T06:32:34;12.82;;;8.40;;
22260;SDS011;11299;43.202;27.920;2023-06-10T06:35:00;13.88;;;6.50;;
22260;SDS011;11299;43.202;27.920;2023-06-10T06:37:26;8.02;;;3.28;;
22260;SDS011;11299;43.202;27.920;2023-06-10T06:39:52;6.53;;;4.05;;
22260;SDS011;11299;43.202;27.920;2023-06-10T06:42:18;6.80;;;3.85;;
22260;SDS011;11299;43.202;27.920;2023-06-10T06:44:44;4.32;;;2.95;;
22260;SDS011;11299;43.202;27.920;2023-06-10T06:47:11;7.18;;;2.97;;
22260;SDS011;11299;43.202;27.920;2023-06-10T06:49:37;6.10;;;4.50;;
22260;SDS011;11299;43.202;27.920;2023-06-10T06:52:02;7.00;;;2.80;;
22260;SDS011;11299;43.202;27.920;2023-06-10T06:54:30;11.60;;;6.50;;
22260;SDS011;11299;43.202;27.920;2023-06-10T06:56:56;15.30;;;8.65;;
22260;SDS011;11299;43.202;27.920;2023-06-10T06:59:22;13.77;;;8.18;;
22260;SDS011;11299;43.202;27.920;2023-06-10T07:01:47;16.90;;;7.30;;
22260;SDS011;11299;43.202;27.920;2023-06-10T07:04:14;16.35;;;8.75;;
22260;SDS011;11299;43.202;27.920;2023-06-10T07:06:41;18.60;;;8.70;;
22260;SDS011;11299;43.202;27.920;2023-06-10T07:09:07;13.88;;;8.05;;
22260;SDS011;11299;43.202;27.920;2023-06-10T07:11:34;18.00;;;8.25;;
22260;SDS011;11299;43.202;27.920;2023-06-10T07:13:59;10.15;;;6.68;;
22260;SDS011;11299;43.202;27.920;2023-06-10T07:16:25;15.77;;;4.40;;
22260;SDS011;11299;43.202;27.920;2023-06-10T07:18:50;12.00;;;5.95;;
22260;SDS011;11299;43.202;27.920;2023-06-10T07:21:17;11.90;;;5.90;;
22260;SDS011;11299;43.202;27.920;2023-06-10T07:23:43;7.03;;;4.82;;
22260;SDS011;11299;43.202;27.920;2023-06-10T07:26:08;10.80;;;4.60;;
22260;SDS011;11299;43.202;27.920;2023-06-10T07:28:36;8.05;;;3.60;;
22260;SDS011;11299;43.202;27.920;2023-06-10T07:31:02;16.38;;;4.70;;
22260;SDS011;11299;43.202;27.920;2023-06-10T07:33:28;13.02;;;5.15;;
22260;SDS011;11299;43.202;27.920;2023-06-10T07:35:53;10.63;;;3.60;;
22260;SDS011;11299;43.202;27.920;2023-06-10T07:38:19;9.75;;;4.30;;
22260;SDS011;11299;43.202;27.920;2023-06-10T07:40:45;13.15;;;4.38;;
22260;SDS011;11299;43.202;27.920;2023-06-10T07:43:11;9.80;;;4.63;;
22260;SDS011;11299;43.202;27.920;2023-06-10T07:45:36;9.68;;;4.38;;
22260;SDS011;11299;43.202;27.920;2023-06-10T07:48:02;10.50;;;3.28;;
22260;SDS011;11299;43.202;27.920;2023-06-10T07:50:27;9.35;;;3.42;;
22260;SDS011;11299;43.202;27.920;2023-06-10T07:52:54;7.40;;;3.58;;
22260;SDS011;11299;43.202;27.920;2023-06-10T07:55:19;6.82;;;2.97;;
22260;SDS011;11299;43.202;27.920;2023-06-10T07:57:44;5.53;;;2.85;;
22260;SDS011;11299;43.202;27.920;2023-06-10T08:00:10;8.43;;;3.17;;
22260;SDS011;11299;43.202;27.920;2023-06-10T08:02:36;5.25;;;3.10;;
22260;SDS011;11299;43.202;27.920;2023-06-10T08:05:02;6.22;;;2.97;;
22260;SDS011;11299;43.202;27.920;2023-06-10T08:07:28;8.60;;;2.95;;
22260;SDS011;11299;43.202;27.920;2023-06-10T08:09:53;4.43;;;2.63;;
22260;SDS011;11299;43.202;27.920;2023-06-10T08:12:19;9.88;;;3.03;;
22260;SDS011;11299;43.202;27.920;2023-06-10T08:14:45;6.13;;;2.75;;
22260;SDS011;11299;43.202;27.920;2023-06-10T08:17:11;11.18;;;3.53;;
22260;SDS011;11299;43.202;27.920;2023-06-10T08:19:36;9.40;;;3.40;;
22260;SDS011;11299;43.202;27.920;2023-06-10T08:22:01;8.00;;;3.63;;
22260;SDS011;11299;43.202;27.920;2023-06-10T08:24:27;7.55;;;4.25;;
22260;SDS011;11299;43.202;27.920;2023-06-10T08:26:52;9.40;;;3.72;;
22260;SDS011;11299;43.202;27.920;2023-06-10T08:29:18;6.78;;;3.08;;
22260;SDS011;11299;43.202;27.920;2023-06-10T08:31:44;7.07;;;2.92;;
22260;SDS011;11299;43.202;27.920;2023-06-10T08:34:09;6.55;;;2.90;;
22260;SDS011;11299;43.202;27.920;2023-06-10T08:36:35;5.53;;;3.80;;
22260;SDS011;11299;43.202;27.920;2023-06-10T08:39:01;8.30;;;4.10;;
22260;SDS011;11299;43.202;27.920;2023-06-10T08:41:28;3.55;;;2.78;;
22260;SDS011;11299;43.202;27.920;2023-06-10T08:46:47;6.97;;;2.58;;
22260;SDS011;11299;43.202;27.920;2023-06-10T08:49:18;5.97;;;2.75;;
22260;SDS011;11299;43.202;27.920;2023-06-10T08:51:50;8.20;;;3.40;;
22260;SDS011;11299;43.202;27.920;2023-06-10T08:54:25;8.52;;;3.47;;
22260;SDS011;11299;43.202;27.920;2023-06-10T08:56:53;6.53;;;3.10;;
22260;SDS011;11299;43.202;27.920;2023-06-10T08:59:20;7.50;;;3.60;;
22260;SDS011;11299;43.202;27.920;2023-06-10T09:01:46;6.72;;;3.33;;
22260;SDS011;11299;43.202;27.920;2023-06-10T09:04:12;7.72;;;2.70;;
22260;SDS011;11299;43.202;27.920;2023-06-10T09:06:39;5.50;;;2.92;;
22260;SDS011;11299;43.202;27.920;2023-06-10T09:09:06;7.60;;;3.15;;
22260;SDS011;11299;43.202;27.920;2023-06-10T09:11:32;12.00;;;3.53;;
22260;SDS011;11299;43.202;27.920;2023-06-10T09:13:58;4.60;;;2.75;;
22260;SDS011;11299;43.202;27.920;2023-06-10T09:16:24;5.72;;;2.95;;
22260;SDS011;11299;43.202;27.920;2023-06-10T09:18:50;5.88;;;3.17;;
22260;SDS011;11299;43.202;27.920;2023-06-10T09:21:21;4.20;;;3.50;;
22260;SDS011;11299;43.202;27.920;2023-06-10T09:23:47;4.88;;;2.92;;
22260;SDS011;11299;43.202;27.920;2023-06-10T09:26:13;5.90;;;2.92;;
22260;SDS011;11299;43.202;27.920;2023-06-10T09:28:38;3.58;;;2.55;;
22260;SDS011;11299;43.202;27.920;2023-06-10T09:31:05;4.95;;;2.92;;
22260;SDS011;11299;43.202;27.920;2023-06-10T09:33:32;9.55;;;3.08;;
22260;SDS011;11299;43.202;27.920;2023-06-10T09:35:59;8.50;;;3.20;;
22260;SDS011;11299;43.202;27.920;2023-06-10T09:38:30;4.80;;;3.00;;
22260;SDS011;11299;43.202;27.920;2023-06-10T09:40:57;4.82;;;3.33;;
22260;SDS011;11299;43.202;27.920;2023-06-10T09:43:23;7.00;;;3.95;;
22260;SDS011;11299;43.202;27.920;2023-06-10T09:46:02;4.45;;;3.38;;
22260;SDS011;11299;43.202;27.920;2023-06-10T09:48:28;6.20;;;3.33;;
22260;SDS011;11299;43.202;27.920;2023-06-10T09:50:53;6.05;;;3.30;;
22260;SDS011;11299;43.202;27.920;2023-06-10T09:53:19;5.47;;;3.65;;
22260;SDS011;11299;43.202;27.920;2023-06-10T09:55:46;5.10;;;2.92;;
22260;SDS011;11299;43.202;27.920;2023-06-10T09:58:11;3.10;;;2.42;;
22260;SDS011;11299;43.202;27.920;2023-06-10T10:00:36;5.07;;;3.22;;
22260;SDS011;11299;43.202;27.920;2023-06-10T10:03:02;7.95;;;2.90;;
22260;SDS011;11299;43.202;27.920;2023-06-10T10:05:28;4.53;;;2.95;;
22260;SDS011;11299;43.202;27.920;2023-06-10T10:07:54;6.43;;;3.42;;
22260;SDS011;11299;43.202;27.920;2023-06-10T10:10:21;5.78;;;3.70;;
22260;SDS011;11299;43.202;27.920;2023-06-10T10:12:47;7.43;;;2.65;;
22260;SDS011;11299;43.202;27.920;2023-06-10T10:15:16;4.97;;;3.10;;
22260;SDS011;11299;43.202;27.920;2023-06-10T10:17:49;5.35;;;2.92;;
22260;SDS011;11299;43.202;27.920;2023-06-10T10:20:20;7.63;;;3.40;;
22260;SDS011;11299;43.202;27.920;2023-06-10T10:22:50;7.97;;;3.78;;
22260;SDS011;11299;43.202;27.920;2023-06-10T10:25:23;6.45;;;3.00;;
22260;SDS011;11299;43.202;27.920;2023-06-10T10:28:08;8.95;;;3.75;;
22260;SDS011;11299;43.202;27.920;2023-06-10T10:30:39;7.20;;;3.20;;
22260;SDS011;11299;43.202;27.920;2023-06-10T10:33:12;6.05;;;2.90;;
22260;SDS011;11299;43.202;27.920;2023-06-10T10:35:41;4.82;;;2.97;;
22260;SDS011;11299;43.202;27.920;2023-06-10T10:38:08;4.82;;;2.70;;
22260;SDS011;11299;43.202;27.920;2023-06-10T10:40:34;4.47;;;2.80;;
22260;SDS011;11299;43.202;27.920;2023-06-10T10:43:00;6.00;;;2.38;;
22260;SDS011;11299;43.202;27.920;2023-06-10T10:45:27;4.93;;;2.58;;
22260;SDS011;11299;43.202;27.920;2023-06-10T10:47:54;6.65;;;2.72;;
22260;SDS011;11299;43.202;27.920;2023-06-10T10:50:23;6.75;;;2.53;;
22260;SDS011;11299;43.202;27.920;2023-06-10T10:52:53;5.70;;;2.60;;
22260;SDS011;11299;43.202;27.920;2023-06-10T11:00:24;0.10;;;0.10;;
22260;SDS011;11299;43.202;27.920;2023-06-10T11:02:53;0.00;;;0.00;;
22260;SDS011;11299;43.202;27.920;2023-06-10T11:05:39;0.10;;;0.10;;
22260;SDS011;11299;43.202;27.920;2023-06-10T11:08:09;2.17;;;0.82;;
22260;SDS011;11299;43.202;27.920;2023-06-10T11:10:36;0.28;;;0.28;;
22260;SDS011;11299;43.202;27.920;2023-06-10T11:13:09;0.38;;;0.30;;
22260;SDS011;11299;43.202;27.920;2023-06-10T11:15:39;0.77;;;0.60;;
22260;SDS011;11299;43.202;27.920;2023-06-10T11:28:37;0.50;;;0.50;;
22260;SDS011;11299;43.202;27.920;2023-06-10T11:31:03;0.40;;;0.25;;
22260;SDS011;11299;43.202;27.920;2023-06-10T11:33:29;0.00;;;0.00;;
22260;SDS011;11299;43.202;27.920;2023-06-10T11:35:55;0.85;;;0.40;;
22260;SDS011;11299;43.202;27.920;2023-06-10T11:38:21;12.50;;;0.85;;
22260;SDS011;11299;43.202;27.920;2023-06-10T11:40:50;0.22;;;0.22;;
22260;SDS011;11299;43.202;27.920;2023-06-10T11:43:16;0.40;;;0.40;;
22260;SDS011;11299;43.202;27.920;2023-06-10T11:45:42;0.70;;;0.60;;
22260;SDS011;11299;43.202;27.920;2023-06-10T11:48:08;0.25;;;0.13;;
22260;SDS011;11299;43.202;27.920;2023-06-10T11:50:34;1.00;;;0.52;;
22260;SDS011;11299;43.202;27.920;2023-06-10T11:53:00;0.90;;;0.52;;
22260;SDS011;11299;43.202;27.920;2023-06-10T11:55:26;1.30;;;0.65;;
22260;SDS011;11299;43.202;27.920;2023-06-10T11:58:12;1.85;;;0.75;;
22260;SDS011;11299;43.202;27.920;2023-06-10T12:03:14;0.00;;;0.00;;
22260;SDS011;11299;43.202;27.920;2023-06-10T12:05:40;1.15;;;0.80;;
22260;SDS011;11299;43.202;27.920;2023-06-10T12:08:18;0.10;;;0.10;;
22260;SDS011;11299;43.202;27.920;2023-06-10T12:10:43;0.00;;;0.00;;
22260;SDS011;11299;43.202;27.920;2023-06-10T12:13:09;0.00;;;0.00;;
22260;SDS011;11299;43.202;27.920;2023-06-10T12:15:35;0.15;;;0.15;;
22260;SDS011;11299;43.202;27.920;2023-06-10T12:18:01;0.00;;;0.00;;
22260;SDS011;11299;43.202;27.920;2023-06-10T12:20:28;6.18;;;0.38;;
22260;SDS011;11299;43.202;27.920;2023-06-10T12:22:55;0.20;;;0.20;;
22260;SDS011;11299;43.202;27.920;2023-06-10T12:25:25;0.38;;;0.38;;
22260;SDS011;11299;43.202;27.920;2023-06-10T12:27:55;0.65;;;0.20;;
22260;SDS011;11299;43.202;27.920;2023-06-10T12:30:23;3.58;;;1.17;;
22260;SDS011;11299;43.202;27.920;2023-06-10T12:32:50;2.67;;;1.10;;
22260;SDS011;11299;43.202;27.920;2023-06-10T12:35:16;0.20;;;0.20;;
22260;SDS011;11299;43.202;27.920;2023-06-10T12:37:54;0.70;;;0.40;;
22260;SDS011;11299;43.202;27.920;2023-06-10T12:40:25;1.33;;;0.93;;
22260;SDS011;11299;43.202;27.920;2023-06-10T12:42:51;0.88;;;0.50;;
22260;SDS011;11299;43.202;27.920;2023-06-10T12:45:25;1.15;;;0.13;;
22260;SDS011;11299;43.202;27.920;2023-06-10T12:48:03;0.00;;;0.00;;
22260;SDS011;11299;43.202;27.920;2023-06-10T12:50:31;0.60;;;0.60;;
22260;SDS011;11299;43.202;27.920;2023-06-10T12:52:56;0.15;;;0.15;;
22260;SDS011;11299;43.202;27.920;2023-06-10T12:55:22;0.40;;;0.40;;
22260;SDS011;11299;43.202;27.920;2023-06-10T12:57:48;0.85;;;0.40;;
22260;SDS011;11299;43.202;27.920;2023-06-10T13:00:15;0.15;;;0.15;;
22260;SDS011;11299;43.202;27.920;2023-06-10T13:02:41;1.73;;;1.23;;
22260;SDS011;11299;43.202;27.920;2023-06-10T13:05:07;1.08;;;0.47;;
22260;SDS011;11299;43.202;27.920;2023-06-10T13:07:32;1.75;;;0.75;;
22260;SDS011;11299;43.202;27.920;2023-06-10T13:09:58;0.35;;;0.30;;
22260;SDS011;11299;43.202;27.920;2023-06-10T13:12:25;2.15;;;1.95;;
22260;SDS011;11299;43.202;27.920;2023-06-10T13:14:54;0.50;;;0.50;;
22260;SDS011;11299;43.202;27.920;2023-06-10T13:17:20;0.88;;;0.40;;
22260;SDS011;11299;43.202;27.920;2023-06-10T13:19:45;1.45;;;0.95;;
22260;SDS011;11299;43.202;27.920;2023-06-10T13:22:11;0.00;;;0.00;;
22260;SDS011;11299;43.202;27.920;2023-06-10T13:24:38;0.10;;;0.10;;
22260;SDS011;11299;43.202;27.920;2023-06-10T13:27:04;2.03;;;1.23;;
22260;SDS011;11299;43.202;27.920;2023-06-10T13:29:31;0.10;;;0.10;;
22260;SDS011;11299;43.202;27.920;2023-06-10T13:31:57;8.40;;;6.00;;
22260;SDS011;11299;43.202;27.920;2023-06-10T13:34:22;0.45;;;0.45;;
22260;SDS011;11299;43.202;27.920;2023-06-10T13:36:48;0.05;;;0.05;;
22260;SDS011;11299;43.202;27.920;2023-06-10T13:39:13;1.33;;;0.38;;
22260;SDS011;11299;43.202;27.920;2023-06-10T13:41:40;0.98;;;0.70;;
22260;SDS011;11299;43.202;27.920;2023-06-10T13:44:06;0.10;;;0.10;;
22260;SDS011;11299;43.202;27.920;2023-06-10T13:46:31;0.20;;;0.20;;
22260;SDS011;11299;43.202;27.920;2023-06-10T13:48:57;0.10;;;0.10;;
22260;SDS011;11299;43.202;27.920;2023-06-10T13:51:23;0.00;;;0.00;;
22260;SDS011;11299;43.202;27.920;2023-06-10T13:53:48;0.05;;;0.03;;
22260;SDS011;11299;43.202;27.920;2023-06-10T13:56:15;0.30;;;0.30;;
22260;SDS011;11299;43.202;27.920;2023-06-10T13:58:40;0.80;;;0.47;;
22260;SDS011;11299;43.202;27.920;2023-06-10T14:01:08;0.00;;;0.00;;
22260;SDS011;11299;43.202;27.920;2023-06-10T14:03:33;1.00;;;0.70;;
22260;SDS011;11299;43.202;27.920;2023-06-10T14:05:59;0.40;;;0.40;;
22260;SDS011;11299;43.202;27.920;2023-06-10T14:08:24;0.90;;;0.65;;
22260;SDS011;11299;43.202;27.920;2023-06-10T14:10:49;0.25;;;0.20;;
22260;SDS011;11299;43.202;27.920;2023-06-10T14:13:18;0.13;;;0.10;;
22260;SDS011;11299;43.202;27.920;2023-06-10T14:15:44;1.10;;;0.45;;
22260;SDS011;11299;43.202;27.920;2023-06-10T14:18:10;1.55;;;0.90;;
22260;SDS011;11299;43.202;27.920;2023-06-10T14:20:36;0.32;;;0.32;;
22260;SDS011;11299;43.202;27.920;2023-06-10T14:23:01;0.28;;;0.28;;
22260;SDS011;11299;43.202;27.920;2023-06-10T14:25:27;0.57;;;0.57;;
22260;SDS011;11299;43.202;27.920;2023-06-10T14:27:53;0.47;;;0.47;;
22260;SDS011;11299;43.202;27.920;2023-06-10T14:30:18;0.32;;;0.30;;
22260;SDS011;11299;43.202;27.920;2023-06-10T14:32:44;0.50;;;0.28;;
22260;SDS011;11299;43.202;27.920;2023-06-10T14:35:10;0.05;;;0.05;;
22260;SDS011;11299;43.202;27.920;2023-06-10T14:37:35;0.85;;;0.25;;
22260;SDS011;11299;43.202;27.920;2023-06-10T14:40:02;2.13;;;1.25;;
22260;SDS011;11299;43.202;27.920;2023-06-10T14:42:29;0.40;;;0.40;;
22260;SDS011;11299;43.202;27.920;2023-06-10T14:44:55;0.10;;;0.10;;